Terminal Aerodrome Forecast
Issued by NWS

Home | Current Version | Previous Version | Graphics & Text | Print | Product List | Glossary On
Versions: 1 2 3 4 5 6 7 8 9 10 11 12 13 14 15 16 17 18 19 20 21 22 23 24 25 26 27 28 29 30 31 32
000
FTUS43 KLOT 270500
TAFDPA
TAF
KDPA 270531Z 2706/2806 18006KT P6SM BKN050
     FM270900 18008KT P6SM VCSH BKN025
     FM271100 19008KT 6SM BR OVC009
     FM271500 21012G18KT P6SM SCT008 OVC015
     FM271800 27016G27KT P6SM BKN025
     FM272300 28012G18KT P6SM BKN025
     FM280200 30008KT P6SM BKN025=

USA.gov is the U.S. government's official web portal to all federal, state and local government web resources and services.